sensor_id;sensor_type;location;lat;lon;timestamp;P1;durP1;ratioP1;P2;durP2;ratioP2
23588;SDS011;11972;48.078;11.876;2024-01-15T00:01:32;3.70;;;2.90;;
23588;SDS011;11972;48.078;11.876;2024-01-15T00:05:32;4.47;;;3.50;;
23588;SDS011;11972;48.078;11.876;2024-01-15T00:09:32;5.32;;;3.10;;
23588;SDS011;11972;48.078;11.876;2024-01-15T00:13:33;4.50;;;3.50;;
23588;SDS011;11972;48.078;11.876;2024-01-15T00:17:33;4.13;;;3.17;;
23588;SDS011;11972;48.078;11.876;2024-01-15T00:21:33;4.20;;;3.45;;
23588;SDS011;11972;48.078;11.876;2024-01-15T00:25:34;5.45;;;3.33;;
23588;SDS011;11972;48.078;11.876;2024-01-15T00:29:34;5.88;;;3.13;;
23588;SDS011;11972;48.078;11.876;2024-01-15T00:33:34;4.10;;;3.00;;
23588;SDS011;11972;48.078;11.876;2024-01-15T00:37:35;4.80;;;3.60;;
23588;SDS011;11972;48.078;11.876;2024-01-15T00:41:35;6.97;;;4.55;;
23588;SDS011;11972;48.078;11.876;2024-01-15T00:45:36;5.45;;;4.65;;
23588;SDS011;11972;48.078;11.876;2024-01-15T00:49:37;6.13;;;5.30;;
23588;SDS011;11972;48.078;11.876;2024-01-15T00:53:37;6.10;;;4.43;;
23588;SDS011;11972;48.078;11.876;2024-01-15T00:57:38;5.03;;;4.53;;
23588;SDS011;11972;48.078;11.876;2024-01-15T01:01:40;6.22;;;4.97;;
23588;SDS011;11972;48.078;11.876;2024-01-15T01:05:42;5.93;;;5.25;;
23588;SDS011;11972;48.078;11.876;2024-01-15T01:09:44;8.07;;;5.45;;
23588;SDS011;11972;48.078;11.876;2024-01-15T01:13:45;6.88;;;6.28;;
23588;SDS011;11972;48.078;11.876;2024-01-15T01:17:45;7.03;;;5.70;;
23588;SDS011;11972;48.078;11.876;2024-01-15T01:21:46;6.82;;;6.13;;
23588;SDS011;11972;48.078;11.876;2024-01-15T01:25:46;7.25;;;6.55;;
23588;SDS011;11972;48.078;11.876;2024-01-15T01:29:47;7.35;;;5.75;;
23588;SDS011;11972;48.078;11.876;2024-01-15T01:33:47;9.05;;;7.80;;
23588;SDS011;11972;48.078;11.876;2024-01-15T01:37:47;10.55;;;8.23;;
23588;SDS011;11972;48.078;11.876;2024-01-15T01:41:48;10.80;;;7.57;;
23588;SDS011;11972;48.078;11.876;2024-01-15T01:45:48;9.27;;;7.30;;
23588;SDS011;11972;48.078;11.876;2024-01-15T01:49:48;9.18;;;7.60;;
23588;SDS011;11972;48.078;11.876;2024-01-15T01:53:49;9.73;;;8.43;;
23588;SDS011;11972;48.078;11.876;2024-01-15T01:57:50;8.93;;;8.13;;
23588;SDS011;11972;48.078;11.876;2024-01-15T02:01:51;9.15;;;7.45;;
23588;SDS011;11972;48.078;11.876;2024-01-15T02:05:54;8.85;;;7.70;;
23588;SDS011;11972;48.078;11.876;2024-01-15T02:09:55;8.02;;;7.20;;
23588;SDS011;11972;48.078;11.876;2024-01-15T02:13:56;9.70;;;6.80;;
23588;SDS011;11972;48.078;11.876;2024-01-15T02:18:00;8.75;;;6.97;;
23588;SDS011;11972;48.078;11.876;2024-01-15T02:22:02;9.30;;;7.40;;
23588;SDS011;11972;48.078;11.876;2024-01-15T02:26:03;7.97;;;6.57;;
23588;SDS011;11972;48.078;11.876;2024-01-15T02:30:05;7.57;;;5.30;;
23588;SDS011;11972;48.078;11.876;2024-01-15T02:34:06;7.38;;;6.50;;
23588;SDS011;11972;48.078;11.876;2024-01-15T02:38:07;8.45;;;6.07;;
23588;SDS011;11972;48.078;11.876;2024-01-15T02:42:07;7.43;;;6.05;;
23588;SDS011;11972;48.078;11.876;2024-01-15T02:46:08;6.32;;;5.68;;
23588;SDS011;11972;48.078;11.876;2024-01-15T02:50:08;7.90;;;6.90;;
23588;SDS011;11972;48.078;11.876;2024-01-15T02:54:08;7.45;;;6.57;;
23588;SDS011;11972;48.078;11.876;2024-01-15T02:58:09;8.43;;;7.05;;
23588;SDS011;11972;48.078;11.876;2024-01-15T03:02:09;7.95;;;6.85;;
23588;SDS011;11972;48.078;11.876;2024-01-15T03:06:10;6.97;;;5.82;;
23588;SDS011;11972;48.078;11.876;2024-01-15T03:10:10;8.50;;;7.00;;
23588;SDS011;11972;48.078;11.876;2024-01-15T03:14:10;8.45;;;6.20;;
23588;SDS011;11972;48.078;11.876;2024-01-15T03:18:12;7.43;;;4.93;;
23588;SDS011;11972;48.078;11.876;2024-01-15T03:22:12;6.80;;;5.40;;
23588;SDS011;11972;48.078;11.876;2024-01-15T03:26:12;7.00;;;6.40;;
23588;SDS011;11972;48.078;11.876;2024-01-15T03:30:13;7.22;;;5.55;;
23588;SDS011;11972;48.078;11.876;2024-01-15T03:34:13;7.10;;;5.53;;
23588;SDS011;11972;48.078;11.876;2024-01-15T03:38:13;6.90;;;5.72;;
23588;SDS011;11972;48.078;11.876;2024-01-15T03:42:14;5.57;;;4.68;;
23588;SDS011;11972;48.078;11.876;2024-01-15T03:46:14;6.40;;;5.22;;
23588;SDS011;11972;48.078;11.876;2024-01-15T03:50:14;5.00;;;4.32;;
23588;SDS011;11972;48.078;11.876;2024-01-15T03:54:15;5.63;;;5.03;;
23588;SDS011;11972;48.078;11.876;2024-01-15T03:58:15;5.88;;;4.35;;
23588;SDS011;11972;48.078;11.876;2024-01-15T04:02:16;5.78;;;4.32;;
23588;SDS011;11972;48.078;11.876;2024-01-15T04:06:16;6.15;;;5.28;;
23588;SDS011;11972;48.078;11.876;2024-01-15T04:10:16;5.85;;;4.80;;
23588;SDS011;11972;48.078;11.876;2024-01-15T04:14:16;5.35;;;3.78;;
23588;SDS011;11972;48.078;11.876;2024-01-15T04:18:17;5.13;;;4.03;;
23588;SDS011;11972;48.078;11.876;2024-01-15T04:22:18;5.85;;;4.13;;
23588;SDS011;11972;48.078;11.876;2024-01-15T04:26:18;5.40;;;3.92;;
23588;SDS011;11972;48.078;11.876;2024-01-15T04:30:18;5.93;;;4.63;;
23588;SDS011;11972;48.078;11.876;2024-01-15T04:34:18;5.03;;;4.28;;
23588;SDS011;11972;48.078;11.876;2024-01-15T04:38:19;6.60;;;4.13;;
23588;SDS011;11972;48.078;11.876;2024-01-15T04:42:19;5.25;;;4.50;;
23588;SDS011;11972;48.078;11.876;2024-01-15T04:46:19;5.05;;;3.90;;
23588;SDS011;11972;48.078;11.876;2024-01-15T04:50:20;6.28;;;3.80;;
23588;SDS011;11972;48.078;11.876;2024-01-15T04:54:20;4.95;;;3.90;;
23588;SDS011;11972;48.078;11.876;2024-01-15T04:58:20;5.18;;;3.97;;
23588;SDS011;11972;48.078;11.876;2024-01-15T05:02:24;7.53;;;4.30;;
23588;SDS011;11972;48.078;11.876;2024-01-15T05:06:25;5.30;;;4.00;;
23588;SDS011;11972;48.078;11.876;2024-01-15T05:10:26;4.82;;;3.72;;
23588;SDS011;11972;48.078;11.876;2024-01-15T05:14:26;5.05;;;3.88;;
23588;SDS011;11972;48.078;11.876;2024-01-15T05:18:26;5.07;;;3.85;;
23588;SDS011;11972;48.078;11.876;2024-01-15T05:22:27;5.05;;;3.85;;
23588;SDS011;11972;48.078;11.876;2024-01-15T05:26:27;4.43;;;3.88;;
23588;SDS011;11972;48.078;11.876;2024-01-15T05:30:27;4.43;;;3.75;;
23588;SDS011;11972;48.078;11.876;2024-01-15T05:34:27;4.53;;;3.60;;
23588;SDS011;11972;48.078;11.876;2024-01-15T05:38:28;4.32;;;3.35;;
23588;SDS011;11972;48.078;11.876;2024-01-15T05:42:28;4.70;;;3.60;;
23588;SDS011;11972;48.078;11.876;2024-01-15T05:46:30;4.55;;;3.75;;
23588;SDS011;11972;48.078;11.876;2024-01-15T05:50:30;5.38;;;3.60;;
23588;SDS011;11972;48.078;11.876;2024-01-15T05:54:31;4.35;;;3.63;;
23588;SDS011;11972;48.078;11.876;2024-01-15T05:58:31;4.07;;;3.10;;
23588;SDS011;11972;48.078;11.876;2024-01-15T06:02:32;3.47;;;3.15;;
23588;SDS011;11972;48.078;11.876;2024-01-15T06:06:32;4.47;;;3.35;;
23588;SDS011;11972;48.078;11.876;2024-01-15T06:10:32;4.00;;;2.95;;
23588;SDS011;11972;48.078;11.876;2024-01-15T06:14:33;3.25;;;2.92;;
23588;SDS011;11972;48.078;11.876;2024-01-15T06:18:33;3.85;;;2.80;;
23588;SDS011;11972;48.078;11.876;2024-01-15T06:22:33;3.25;;;2.90;;
23588;SDS011;11972;48.078;11.876;2024-01-15T06:26:34;4.38;;;3.00;;
23588;SDS011;11972;48.078;11.876;2024-01-15T06:30:34;8.40;;;4.32;;
23588;SDS011;11972;48.078;11.876;2024-01-15T06:34:35;5.80;;;4.57;;
23588;SDS011;11972;48.078;11.876;2024-01-15T06:38:35;3.90;;;3.00;;
23588;SDS011;11972;48.078;11.876;2024-01-15T06:42:36;3.25;;;2.50;;
23588;SDS011;11972;48.078;11.876;2024-01-15T06:46:36;5.30;;;3.22;;
23588;SDS011;11972;48.078;11.876;2024-01-15T06:50:37;4.00;;;2.90;;
23588;SDS011;11972;48.078;11.876;2024-01-15T06:54:37;3.85;;;3.05;;
23588;SDS011;11972;48.078;11.876;2024-01-15T06:58:37;4.63;;;3.22;;
23588;SDS011;11972;48.078;11.876;2024-01-15T07:02:38;4.65;;;3.42;;
23588;SDS011;11972;48.078;11.876;2024-01-15T07:06:38;3.50;;;3.08;;
23588;SDS011;11972;48.078;11.876;2024-01-15T07:10:39;3.90;;;3.25;;
23588;SDS011;11972;48.078;11.876;2024-01-15T07:14:39;3.72;;;3.10;;
23588;SDS011;11972;48.078;11.876;2024-01-15T07:18:39;4.97;;;3.28;;
23588;SDS011;11972;48.078;11.876;2024-01-15T07:22:40;4.07;;;2.78;;
23588;SDS011;11972;48.078;11.876;2024-01-15T07:26:40;3.85;;;3.20;;
23588;SDS011;11972;48.078;11.876;2024-01-15T07:30:41;4.93;;;3.00;;
23588;SDS011;11972;48.078;11.876;2024-01-15T07:34:41;4.40;;;3.45;;
23588;SDS011;11972;48.078;11.876;2024-01-15T07:38:41;5.30;;;3.78;;
23588;SDS011;11972;48.078;11.876;2024-01-15T07:42:42;5.38;;;3.45;;
23588;SDS011;11972;48.078;11.876;2024-01-15T07:46:46;4.63;;;3.53;;
23588;SDS011;11972;48.078;11.876;2024-01-15T07:50:47;3.78;;;3.05;;
23588;SDS011;11972;48.078;11.876;2024-01-15T07:54:47;5.55;;;3.45;;
23588;SDS011;11972;48.078;11.876;2024-01-15T07:58:47;5.03;;;3.03;;
23588;SDS011;11972;48.078;11.876;2024-01-15T08:02:48;5.90;;;3.58;;
23588;SDS011;11972;48.078;11.876;2024-01-15T08:06:48;3.47;;;3.17;;
23588;SDS011;11972;48.078;11.876;2024-01-15T08:10:48;3.90;;;3.00;;
23588;SDS011;11972;48.078;11.876;2024-01-15T08:14:49;4.43;;;3.25;;
23588;SDS011;11972;48.078;11.876;2024-01-15T08:18:49;3.75;;;3.33;;
23588;SDS011;11972;48.078;11.876;2024-01-15T08:22:50;4.05;;;3.03;;
23588;SDS011;11972;48.078;11.876;2024-01-15T08:26:50;4.30;;;3.63;;
23588;SDS011;11972;48.078;11.876;2024-01-15T08:30:50;6.15;;;4.20;;
23588;SDS011;11972;48.078;11.876;2024-01-15T08:34:51;4.68;;;3.85;;
23588;SDS011;11972;48.078;11.876;2024-01-15T08:38:52;4.38;;;3.80;;
23588;SDS011;11972;48.078;11.876;2024-01-15T08:42:52;4.75;;;4.00;;
23588;SDS011;11972;48.078;11.876;2024-01-15T08:46:53;4.22;;;3.28;;
23588;SDS011;11972;48.078;11.876;2024-01-15T08:50:53;4.90;;;3.67;;
23588;SDS011;11972;48.078;11.876;2024-01-15T08:54:55;3.45;;;2.83;;
23588;SDS011;11972;48.078;11.876;2024-01-15T08:58:56;3.58;;;3.10;;
23588;SDS011;11972;48.078;11.876;2024-01-15T09:02:58;4.50;;;3.08;;
23588;SDS011;11972;48.078;11.876;2024-01-15T09:06:58;3.40;;;3.03;;
23588;SDS011;11972;48.078;11.876;2024-01-15T09:10:59;4.05;;;3.03;;
23588;SDS011;11972;48.078;11.876;2024-01-15T09:15:02;4.25;;;3.75;;
23588;SDS011;11972;48.078;11.876;2024-01-15T09:19:04;4.32;;;3.40;;
23588;SDS011;11972;48.078;11.876;2024-01-15T09:23:04;3.92;;;3.40;;
23588;SDS011;11972;48.078;11.876;2024-01-15T09:27:05;4.50;;;3.65;;
23588;SDS011;11972;48.078;11.876;2024-01-15T09:31:05;3.70;;;3.25;;
23588;SDS011;11972;48.078;11.876;2024-01-15T09:35:06;4.30;;;3.65;;
23588;SDS011;11972;48.078;11.876;2024-01-15T09:39:06;4.25;;;3.40;;
23588;SDS011;11972;48.078;11.876;2024-01-15T09:43:08;5.20;;;3.80;;
23588;SDS011;11972;48.078;11.876;2024-01-15T09:47:08;4.63;;;3.60;;
23588;SDS011;11972;48.078;11.876;2024-01-15T09:51:09;5.05;;;3.70;;
23588;SDS011;11972;48.078;11.876;2024-01-15T09:55:10;3.90;;;3.42;;
23588;SDS011;11972;48.078;11.876;2024-01-15T09:59:16;5.40;;;3.35;;
23588;SDS011;11972;48.078;11.876;2024-01-15T10:03:18;3.83;;;3.08;;
23588;SDS011;11972;48.078;11.876;2024-01-15T10:07:18;3.40;;;3.00;;
23588;SDS011;11972;48.078;11.876;2024-01-15T10:11:19;3.72;;;2.88;;
23588;SDS011;11972;48.078;11.876;2024-01-15T10:15:22;3.78;;;3.38;;
23588;SDS011;11972;48.078;11.876;2024-01-15T10:19:23;4.28;;;3.03;;
23588;SDS011;11972;48.078;11.876;2024-01-15T10:23:26;3.30;;;2.83;;
23588;SDS011;11972;48.078;11.876;2024-01-15T10:27:27;4.72;;;2.90;;
23588;SDS011;11972;48.078;11.876;2024-01-15T10:31:27;4.43;;;2.90;;
23588;SDS011;11972;48.078;11.876;2024-01-15T10:35:29;4.75;;;2.88;;
23588;SDS011;11972;48.078;11.876;2024-01-15T10:39:30;3.75;;;2.83;;
23588;SDS011;11972;48.078;11.876;2024-01-15T10:43:30;2.17;;;1.70;;
23588;SDS011;11972;48.078;11.876;2024-01-15T10:47:31;3.58;;;2.35;;
23588;SDS011;11972;48.078;11.876;2024-01-15T10:51:32;2.53;;;2.33;;
23588;SDS011;11972;48.078;11.876;2024-01-15T10:55:33;3.38;;;2.20;;
23588;SDS011;11972;48.078;11.876;2024-01-15T10:59:38;2.20;;;1.95;;
23588;SDS011;11972;48.078;11.876;2024-01-15T11:03:38;2.58;;;2.00;;
23588;SDS011;11972;48.078;11.876;2024-01-15T11:07:39;2.63;;;1.70;;
23588;SDS011;11972;48.078;11.876;2024-01-15T11:11:44;2.05;;;1.50;;
23588;SDS011;11972;48.078;11.876;2024-01-15T11:16:03;2.05;;;1.50;;
23588;SDS011;11972;48.078;11.876;2024-01-15T11:20:05;2.33;;;1.80;;
23588;SDS011;11972;48.078;11.876;2024-01-15T11:24:06;1.95;;;1.40;;
23588;SDS011;11972;48.078;11.876;2024-01-15T11:28:11;1.67;;;1.20;;
23588;SDS011;11972;48.078;11.876;2024-01-15T11:32:47;1.67;;;1.40;;
23588;SDS011;11972;48.078;11.876;2024-01-15T11:40:53;1.50;;;1.35;;
23588;SDS011;11972;48.078;11.876;2024-01-15T11:44:54;2.10;;;1.15;;
23588;SDS011;11972;48.078;11.876;2024-01-15T11:48:55;1.30;;;1.15;;
23588;SDS011;11972;48.078;11.876;2024-01-15T11:53:04;1.17;;;1.08;;
23588;SDS011;11972;48.078;11.876;2024-01-15T11:57:18;1.70;;;1.40;;
23588;SDS011;11972;48.078;11.876;2024-01-15T12:01:25;1.60;;;1.50;;
23588;SDS011;11972;48.078;11.876;2024-01-15T12:05:26;1.45;;;1.02;;
23588;SDS011;11972;48.078;11.876;2024-01-15T12:09:26;1.45;;;1.30;;
23588;SDS011;11972;48.078;11.876;2024-01-15T12:13:27;1.45;;;1.13;;
23588;SDS011;11972;48.078;11.876;2024-01-15T12:17:28;1.40;;;1.27;;
23588;SDS011;11972;48.078;11.876;2024-01-15T12:21:28;1.25;;;1.00;;
23588;SDS011;11972;48.078;11.876;2024-01-15T12:25:30;1.80;;;1.30;;
23588;SDS011;11972;48.078;11.876;2024-01-15T12:29:31;1.85;;;1.30;;
23588;SDS011;11972;48.078;11.876;2024-01-15T12:33:32;2.88;;;1.63;;
23588;SDS011;11972;48.078;11.876;2024-01-15T12:37:35;1.67;;;1.40;;
23588;SDS011;11972;48.078;11.876;2024-01-15T12:41:36;2.15;;;1.55;;
23588;SDS011;11972;48.078;11.876;2024-01-15T12:45:36;1.85;;;1.30;;
23588;SDS011;11972;48.078;11.876;2024-01-15T12:49:38;2.83;;;1.65;;
23588;SDS011;11972;48.078;11.876;2024-01-15T12:53:39;1.73;;;1.52;;
23588;SDS011;11972;48.078;11.876;2024-01-15T12:57:40;1.90;;;1.65;;
23588;SDS011;11972;48.078;11.876;2024-01-15T13:01:40;1.48;;;1.20;;
23588;SDS011;11972;48.078;11.876;2024-01-15T13:05:41;1.77;;;1.13;;
23588;SDS011;11972;48.078;11.876;2024-01-15T13:09:41;1.70;;;1.30;;
23588;SDS011;11972;48.078;11.876;2024-01-15T13:13:42;1.70;;;1.38;;
23588;SDS011;11972;48.078;11.876;2024-01-15T13:17:42;1.50;;;1.20;;
23588;SDS011;11972;48.078;11.876;2024-01-15T13:21:43;3.58;;;1.45;;
23588;SDS011;11972;48.078;11.876;2024-01-15T13:25:43;1.88;;;1.25;;
23588;SDS011;11972;48.078;11.876;2024-01-15T13:29:43;2.55;;;1.90;;
23588;SDS011;11972;48.078;11.876;2024-01-15T13:33:44;2.55;;;1.83;;
23588;SDS011;11972;48.078;11.876;2024-01-15T13:37:44;1.42;;;1.23;;
23588;SDS011;11972;48.078;11.876;2024-01-15T13:41:45;2.17;;;1.83;;
23588;SDS011;11972;48.078;11.876;2024-01-15T13:45:46;1.60;;;1.42;;
23588;SDS011;11972;48.078;11.876;2024-01-15T13:49:47;2.92;;;1.88;;
23588;SDS011;11972;48.078;11.876;2024-01-15T13:53:48;2.72;;;1.70;;
23588;SDS011;11972;48.078;11.876;2024-01-15T13:57:49;2.03;;;1.73;;
23588;SDS011;11972;48.078;11.876;2024-01-15T14:01:49;1.95;;;1.73;;
23588;SDS011;11972;48.078;11.876;2024-01-15T14:05:50;3.17;;;1.90;;
23588;SDS011;11972;48.078;11.876;2024-01-15T14:09:51;2.17;;;1.80;;
23588;SDS011;11972;48.078;11.876;2024-01-15T14:13:51;1.90;;;1.73;;
23588;SDS011;11972;48.078;11.876;2024-01-15T14:17:51;2.15;;;1.60;;
23588;SDS011;11972;48.078;11.876;2024-01-15T14:21:52;2.92;;;2.10;;
23588;SDS011;11972;48.078;11.876;2024-01-15T14:25:52;2.42;;;2.05;;
23588;SDS011;11972;48.078;11.876;2024-01-15T14:29:53;3.58;;;2.00;;
23588;SDS011;11972;48.078;11.876;2024-01-15T14:33:53;2.22;;;1.90;;
23588;SDS011;11972;48.078;11.876;2024-01-15T14:37:55;5.65;;;2.20;;
23588;SDS011;11972;48.078;11.876;2024-01-15T14:41:55;2.40;;;2.05;;
23588;SDS011;11972;48.078;11.876;2024-01-15T14:45:56;2.22;;;2.00;;
23588;SDS011;11972;48.078;11.876;2024-01-15T14:49:57;2.03;;;1.40;;
23588;SDS011;11972;48.078;11.876;2024-01-15T14:53:57;2.95;;;1.30;;
23588;SDS011;11972;48.078;11.876;2024-01-15T14:57:58;1.85;;;1.20;;
23588;SDS011;11972;48.078;11.876;2024-01-15T15:01:59;1.83;;;1.52;;
23588;SDS011;11972;48.078;11.876;2024-01-15T15:05:59;1.52;;;1.23;;
23588;SDS011;11972;48.078;11.876;2024-01-15T15:10:00;2.30;;;1.60;;
23588;SDS011;11972;48.078;11.876;2024-01-15T15:14:00;1.35;;;1.00;;
23588;SDS011;11972;48.078;11.876;2024-01-15T15:18:01;3.42;;;1.50;;
23588;SDS011;11972;48.078;11.876;2024-01-15T15:22:01;2.25;;;1.80;;
23588;SDS011;11972;48.078;11.876;2024-01-15T15:26:02;1.73;;;1.10;;
23588;SDS011;11972;48.078;11.876;2024-01-15T15:30:03;1.92;;;1.40;;
23588;SDS011;11972;48.078;11.876;2024-01-15T15:34:04;1.98;;;1.30;;
23588;SDS011;11972;48.078;11.876;2024-01-15T15:38:04;1.95;;;1.00;;
23588;SDS011;11972;48.078;11.876;2024-01-15T15:42:05;2.58;;;1.33;;
23588;SDS011;11972;48.078;11.876;2024-01-15T15:46:05;1.20;;;1.10;;
23588;SDS011;11972;48.078;11.876;2024-01-15T15:50:06;1.58;;;1.05;;
23588;SDS011;11972;48.078;11.876;2024-01-15T15:54:07;1.58;;;1.25;;
23588;SDS011;11972;48.078;11.876;2024-01-15T15:58:07;2.40;;;1.52;;
23588;SDS011;11972;48.078;11.876;2024-01-15T16:02:07;1.08;;;0.95;;
23588;SDS011;11972;48.078;11.876;2024-01-15T16:06:08;2.97;;;1.40;;
23588;SDS011;11972;48.078;11.876;2024-01-15T16:10:08;1.17;;;1.08;;
23588;SDS011;11972;48.078;11.876;2024-01-15T16:14:09;1.60;;;1.20;;
23588;SDS011;11972;48.078;11.876;2024-01-15T16:18:10;1.70;;;1.58;;
23588;SDS011;11972;48.078;11.876;2024-01-15T16:22:10;3.30;;;1.67;;
23588;SDS011;11972;48.078;11.876;2024-01-15T16:26:11;2.92;;;1.67;;
23588;SDS011;11972;48.078;11.876;2024-01-15T16:30:11;2.22;;;1.60;;
23588;SDS011;11972;48.078;11.876;2024-01-15T16:34:12;2.20;;;2.00;;
23588;SDS011;11972;48.078;11.876;2024-01-15T16:38:12;2.58;;;2.38;;
23588;SDS011;11972;48.078;11.876;2024-01-15T16:42:12;2.83;;;2.17;;
23588;SDS011;11972;48.078;11.876;2024-01-15T16:46:13;2.45;;;1.90;;
23588;SDS011;11972;48.078;11.876;2024-01-15T16:50:14;2.50;;;2.30;;
23588;SDS011;11972;48.078;11.876;2024-01-15T16:54:14;4.10;;;2.45;;
23588;SDS011;11972;48.078;11.876;2024-01-15T16:58:14;2.50;;;2.20;;
23588;SDS011;11972;48.078;11.876;2024-01-15T17:02:15;3.13;;;2.60;;
23588;SDS011;11972;48.078;11.876;2024-01-15T17:06:15;3.67;;;2.60;;
23588;SDS011;11972;48.078;11.876;2024-01-15T17:10:15;3.38;;;3.00;;
23588;SDS011;11972;48.078;11.876;2024-01-15T17:14:16;3.13;;;2.80;;
23588;SDS011;11972;48.078;11.876;2024-01-15T17:18:17;4.13;;;3.33;;
23588;SDS011;11972;48.078;11.876;2024-01-15T17:22:18;4.53;;;3.40;;
23588;SDS011;11972;48.078;11.876;2024-01-15T17:26:18;5.00;;;3.78;;
23588;SDS011;11972;48.078;11.876;2024-01-15T17:30:19;4.82;;;3.67;;
23588;SDS011;11972;48.078;11.876;2024-01-15T17:34:19;4.10;;;3.70;;
23588;SDS011;11972;48.078;11.876;2024-01-15T17:38:20;4.40;;;3.85;;
23588;SDS011;11972;48.078;11.876;2024-01-15T17:42:20;3.70;;;3.40;;
23588;SDS011;11972;48.078;11.876;2024-01-15T17:46:20;6.10;;;4.25;;
23588;SDS011;11972;48.078;11.876;2024-01-15T17:50:21;6.80;;;5.40;;
23588;SDS011;11972;48.078;11.876;2024-01-15T17:54:21;4.00;;;3.70;;
23588;SDS011;11972;48.078;11.876;2024-01-15T17:58:22;20.25;;;3.38;;
23588;SDS011;11972;48.078;11.876;2024-01-15T18:02:24;4.85;;;2.60;;
23588;SDS011;11972;48.078;11.876;2024-01-15T18:06:25;3.88;;;2.75;;
23588;SDS011;11972;48.078;11.876;2024-01-15T18:10:25;2.75;;;2.10;;
23588;SDS011;11972;48.078;11.876;2024-01-15T18:14:26;2.83;;;2.53;;
23588;SDS011;11972;48.078;11.876;2024-01-15T18:18:27;3.00;;;2.70;;
23588;SDS011;11972;48.078;11.876;2024-01-15T18:22:28;8.48;;;3.47;;
23588;SDS011;11972;48.078;11.876;2024-01-15T18:26:29;3.40;;;3.10;;
23588;SDS011;11972;48.078;11.876;2024-01-15T18:30:30;4.82;;;3.75;;
23588;SDS011;11972;48.078;11.876;2024-01-15T18:34:31;3.78;;;3.38;;
23588;SDS011;11972;48.078;11.876;2024-01-15T18:38:32;3.63;;;3.30;;
23588;SDS011;11972;48.078;11.876;2024-01-15T18:42:33;4.80;;;4.28;;
23588;SDS011;11972;48.078;11.876;2024-01-15T18:46:34;4.78;;;4.30;;
23588;SDS011;11972;48.078;11.876;2024-01-15T18:50:35;4.63;;;4.22;;
23588;SDS011;11972;48.078;11.876;2024-01-15T18:54:35;6.70;;;5.30;;
23588;SDS011;11972;48.078;11.876;2024-01-15T18:58:36;6.10;;;5.55;;
23588;SDS011;11972;48.078;11.876;2024-01-15T19:02:41;4.82;;;4.43;;
23588;SDS011;11972;48.078;11.876;2024-01-15T19:06:42;5.90;;;5.32;;
23588;SDS011;11972;48.078;11.876;2024-01-15T19:10:42;5.68;;;4.13;;
23588;SDS011;11972;48.078;11.876;2024-01-15T19:14:42;4.95;;;4.55;;
23588;SDS011;11972;48.078;11.876;2024-01-15T19:18:43;5.20;;;4.80;;
23588;SDS011;11972;48.078;11.876;2024-01-15T19:22:43;4.80;;;4.40;;
23588;SDS011;11972;48.078;11.876;2024-01-15T19:26:44;4.50;;;4.10;;
23588;SDS011;11972;48.078;11.876;2024-01-15T19:30:44;4.80;;;4.40;;
23588;SDS011;11972;48.078;11.876;2024-01-15T19:34:45;5.15;;;4.65;;
23588;SDS011;11972;48.078;11.876;2024-01-15T19:38:45;3.40;;;3.10;;
23588;SDS011;11972;48.078;11.876;2024-01-15T19:42:45;3.45;;;2.90;;
23588;SDS011;11972;48.078;11.876;2024-01-15T19:46:46;7.30;;;3.63;;
23588;SDS011;11972;48.078;11.876;2024-01-15T19:50:46;3.60;;;3.25;;
23588;SDS011;11972;48.078;11.876;2024-01-15T19:54:46;3.95;;;3.55;;
23588;SDS011;11972;48.078;11.876;2024-01-15T19:58:47;3.78;;;3.35;;
23588;SDS011;11972;48.078;11.876;2024-01-15T20:02:47;4.45;;;3.78;;
23588;SDS011;11972;48.078;11.876;2024-01-15T20:06:47;4.88;;;3.90;;
23588;SDS011;11972;48.078;11.876;2024-01-15T20:10:48;3.63;;;3.25;;
23588;SDS011;11972;48.078;11.876;2024-01-15T20:14:48;4.47;;;4.07;;
23588;SDS011;11972;48.078;11.876;2024-01-15T20:18:49;5.72;;;4.07;;
23588;SDS011;11972;48.078;11.876;2024-01-15T20:22:52;8.82;;;5.25;;
23588;SDS011;11972;48.078;11.876;2024-01-15T20:26:53;5.13;;;3.88;;
23588;SDS011;11972;48.078;11.876;2024-01-15T20:30:54;4.80;;;3.92;;
23588;SDS011;11972;48.078;11.876;2024-01-15T20:34:54;7.05;;;3.67;;
23588;SDS011;11972;48.078;11.876;2024-01-15T20:38:54;5.20;;;3.65;;
23588;SDS011;11972;48.078;11.876;2024-01-15T20:42:55;2.97;;;2.78;;
23588;SDS011;11972;48.078;11.876;2024-01-15T20:46:55;4.10;;;2.42;;
23588;SDS011;11972;48.078;11.876;2024-01-15T20:50:56;3.20;;;2.83;;
23588;SDS011;11972;48.078;11.876;2024-01-15T20:54:57;5.72;;;2.67;;
23588;SDS011;11972;48.078;11.876;2024-01-15T20:58:59;2.67;;;2.25;;
23588;SDS011;11972;48.078;11.876;2024-01-15T21:02:59;3.38;;;2.20;;
23588;SDS011;11972;48.078;11.876;2024-01-15T21:07:00;4.03;;;2.20;;
23588;SDS011;11972;48.078;11.876;2024-01-15T21:11:00;2.50;;;2.30;;
23588;SDS011;11972;48.078;11.876;2024-01-15T21:15:03;3.50;;;2.47;;
23588;SDS011;11972;48.078;11.876;2024-01-15T21:19:04;4.30;;;2.83;;
23588;SDS011;11972;48.078;11.876;2024-01-15T21:23:04;3.83;;;2.47;;
23588;SDS011;11972;48.078;11.876;2024-01-15T21:27:04;3.53;;;2.40;;
23588;SDS011;11972;48.078;11.876;2024-01-15T21:31:05;2.92;;;2.50;;
23588;SDS011;11972;48.078;11.876;2024-01-15T21:35:05;2.60;;;2.40;;
23588;SDS011;11972;48.078;11.876;2024-01-15T21:39:06;3.45;;;2.60;;
23588;SDS011;11972;48.078;11.876;2024-01-15T21:43:06;3.00;;;2.67;;
23588;SDS011;11972;48.078;11.876;2024-01-15T21:47:07;3.10;;;2.80;;
23588;SDS011;11972;48.078;11.876;2024-01-15T21:51:07;3.30;;;3.00;;
23588;SDS011;11972;48.078;11.876;2024-01-15T21:55:07;4.22;;;2.72;;
23588;SDS011;11972;48.078;11.876;2024-01-15T21:59:09;2.92;;;2.63;;
23588;SDS011;11972;48.078;11.876;2024-01-15T22:03:09;2.72;;;2.40;;
23588;SDS011;11972;48.078;11.876;2024-01-15T22:07:10;3.13;;;2.15;;
23588;SDS011;11972;48.078;11.876;2024-01-15T22:11:10;3.70;;;2.28;;
23588;SDS011;11972;48.078;11.876;2024-01-15T22:15:10;2.17;;;1.98;;
23588;SDS011;11972;48.078;11.876;2024-01-15T22:19:12;2.45;;;2.15;;
23588;SDS011;11972;48.078;11.876;2024-01-15T22:23:13;2.83;;;2.53;;
23588;SDS011;11972;48.078;11.876;2024-01-15T22:27:13;2.35;;;1.55;;
23588;SDS011;11972;48.078;11.876;2024-01-15T22:31:14;2.10;;;1.83;;
23588;SDS011;11972;48.078;11.876;2024-01-15T22:35:14;2.15;;;1.80;;
23588;SDS011;11972;48.078;11.876;2024-01-15T22:39:14;2.95;;;2.15;;
23588;SDS011;11972;48.078;11.876;2024-01-15T22:43:15;3.00;;;2.28;;
23588;SDS011;11972;48.078;11.876;2024-01-15T22:47:15;4.72;;;2.55;;
23588;SDS011;11972;48.078;11.876;2024-01-15T22:51:15;3.00;;;1.92;;
23588;SDS011;11972;48.078;11.876;2024-01-15T22:55:15;2.47;;;2.28;;
23588;SDS011;11972;48.078;11.876;2024-01-15T22:59:16;2.75;;;2.00;;
23588;SDS011;11972;48.078;11.876;2024-01-15T23:03:18;1.95;;;1.65;;
23588;SDS011;11972;48.078;11.876;2024-01-15T23:07:19;2.75;;;1.90;;
23588;SDS011;11972;48.078;11.876;2024-01-15T23:11:20;2.28;;;1.80;;
23588;SDS011;11972;48.078;11.876;2024-01-15T23:15:20;2.50;;;1.75;;
23588;SDS011;11972;48.078;11.876;2024-01-15T23:19:22;2.00;;;1.80;;
23588;SDS011;11972;48.078;11.876;2024-01-15T23:23:23;5.95;;;2.15;;
23588;SDS011;11972;48.078;11.876;2024-01-15T23:27:23;1.60;;;1.30;;
23588;SDS011;11972;48.078;11.876;2024-01-15T23:31:23;2.08;;;1.58;;
23588;SDS011;11972;48.078;11.876;2024-01-15T23:35:24;4.13;;;1.83;;
23588;SDS011;11972;48.078;11.876;2024-01-15T23:39:24;1.92;;;1.70;;
23588;SDS011;11972;48.078;11.876;2024-01-15T23:43:24;3.42;;;1.55;;
23588;SDS011;11972;48.078;11.876;2024-01-15T23:47:25;2.55;;;1.50;;
23588;SDS011;11972;48.078;11.876;2024-01-15T23:51:25;1.83;;;1.13;;